North Falmouth, Massachusetts
Current Conditions -  °F | °C
As of 2:15 PM on Friday 24 Oct 2014 (Local Time) from KFMH Reporting Station
Haze Haze  
Wind Chill: 11°   Ceiling: 1600
Heat Index: 11°   Visibility: 6mi
Dew Point:   Wind: 9mph
Humidity: 88%   Direction: 330°NNW
Pressure: 29.66"   Gusts: NA
Location:  41.64°N, 70.63°W
Report Text: KFMH 241815Z AUTO 33008KT 6SM BR OVC016 11/09 A2966 RMK AO2
Loading
Personal Weather Stations






























Interactive Weather Map
Tropical Storm Tracking
New forecast layout! Learn more

10-Day Weather Forecast

Advertisements
Track Severe Weather on mobile